sensor_id;sensor_type;location;lat;lon;timestamp;pressure;altitude;pressure_sealevel;temperature;humidity
46129;BME280;31860;45.186;5.790;2023-03-14T00:01:19;98339.06;;;17.70;100.00
46129;BME280;31860;45.186;5.790;2023-03-14T00:03:48;98334.75;;;17.68;100.00
46129;BME280;31860;45.186;5.790;2023-03-14T00:06:14;98323.41;;;17.66;100.00
46129;BME280;31860;45.186;5.790;2023-03-14T00:08:40;98337.78;;;17.59;100.00
46129;BME280;31860;45.186;5.790;2023-03-14T00:11:09;98344.31;;;17.50;99.39
46129;BME280;31860;45.186;5.790;2023-03-14T00:13:36;98319.13;;;17.42;96.10
46129;BME280;31860;45.186;5.790;2023-03-14T00:16:06;98275.38;;;17.35;94.01
46129;BME280;31860;45.186;5.790;2023-03-14T00:18:33;98256.97;;;17.33;93.50
46129;BME280;31860;45.186;5.790;2023-03-14T00:21:00;98268.34;;;17.35;93.67
46129;BME280;31860;45.186;5.790;2023-03-14T00:23:30;98293.03;;;17.34;95.26
46129;BME280;31860;45.186;5.790;2023-03-14T00:26:24;98293.22;;;17.30;98.60
46129;BME280;31860;45.186;5.790;2023-03-14T00:28:53;98273.94;;;17.28;98.23
46129;BME280;31860;45.186;5.790;2023-03-14T00:31:18;98273.03;;;17.29;96.79
46129;BME280;31860;45.186;5.790;2023-03-14T00:33:45;98276.47;;;17.31;97.25
46129;BME280;31860;45.186;5.790;2023-03-14T00:36:12;98281.75;;;17.31;97.21
46129;BME280;31860;45.186;5.790;2023-03-14T00:38:39;98294.97;;;17.29;99.42
46129;BME280;31860;45.186;5.790;2023-03-14T00:41:07;98297.63;;;17.29;100.00
46129;BME280;31860;45.186;5.790;2023-03-14T00:43:33;98317.19;;;17.25;100.00
46129;BME280;31860;45.186;5.790;2023-03-14T00:45:58;98324.22;;;17.25;100.00
46129;BME280;31860;45.186;5.790;2023-03-14T00:48:24;98326.81;;;17.26;100.00
46129;BME280;31860;45.186;5.790;2023-03-14T00:50:49;98328.81;;;17.20;100.00
46129;BME280;31860;45.186;5.790;2023-03-14T00:53:15;98337.72;;;17.17;100.00
46129;BME280;31860;45.186;5.790;2023-03-14T00:55:42;98361.66;;;17.13;100.00
46129;BME280;31860;45.186;5.790;2023-03-14T00:58:09;98366.03;;;17.14;100.00
46129;BME280;31860;45.186;5.790;2023-03-14T01:00:35;98363.25;;;17.17;100.00
46129;BME280;31860;45.186;5.790;2023-03-14T01:03:02;98358.22;;;17.11;100.00
46129;BME280;31860;45.186;5.790;2023-03-14T01:05:27;98353.94;;;17.08;100.00
46129;BME280;31860;45.186;5.790;2023-03-14T01:07:53;98355.06;;;17.01;100.00
46129;BME280;31860;45.186;5.790;2023-03-14T01:10:18;98354.56;;;16.91;100.00
46129;BME280;31860;45.186;5.790;2023-03-14T01:12:43;98347.03;;;16.82;100.00
46129;BME280;31860;45.186;5.790;2023-03-14T01:15:09;98345.41;;;16.78;100.00
46129;BME280;31860;45.186;5.790;2023-03-14T01:17:35;98334.88;;;16.78;100.00
46129;BME280;31860;45.186;5.790;2023-03-14T01:20:03;98346.44;;;16.74;100.00
46129;BME280;31860;45.186;5.790;2023-03-14T01:22:30;98342.09;;;16.73;100.00
46129;BME280;31860;45.186;5.790;2023-03-14T01:24:55;98327.16;;;16.74;100.00
46129;BME280;31860;45.186;5.790;2023-03-14T01:27:21;98305.19;;;16.73;100.00
46129;BME280;31860;45.186;5.790;2023-03-14T01:29:46;98286.66;;;16.75;94.71
46129;BME280;31860;45.186;5.790;2023-03-14T01:32:12;98290.97;;;16.77;84.54
46129;BME280;31860;45.186;5.790;2023-03-14T01:34:38;98308.50;;;16.78;82.21
46129;BME280;31860;45.186;5.790;2023-03-14T01:37:03;98312.97;;;16.76;84.62
46129;BME280;31860;45.186;5.790;2023-03-14T01:39:29;98320.16;;;16.73;87.45
46129;BME280;31860;45.186;5.790;2023-03-14T01:41:54;98330.81;;;16.70;89.88
46129;BME280;31860;45.186;5.790;2023-03-14T01:44:20;98324.75;;;16.68;91.27
46129;BME280;31860;45.186;5.790;2023-03-14T01:46:46;98320.22;;;16.71;90.78
46129;BME280;31860;45.186;5.790;2023-03-14T01:52:09;98338.72;;;16.70;92.51
46129;BME280;31860;45.186;5.790;2023-03-14T01:54:42;98347.53;;;16.69;91.90
46129;BME280;31860;45.186;5.790;2023-03-14T01:57:15;98365.97;;;16.70;91.87
46129;BME280;31860;45.186;5.790;2023-03-14T01:59:46;98372.09;;;16.71;93.01
46129;BME280;31860;45.186;5.790;2023-03-14T02:02:14;98372.09;;;16.71;93.36
46129;BME280;31860;45.186;5.790;2023-03-14T02:04:41;98368.47;;;16.73;93.65
46129;BME280;31860;45.186;5.790;2023-03-14T02:07:17;98378.97;;;16.75;94.99
46129;BME280;31860;45.186;5.790;2023-03-14T02:09:44;98356.91;;;16.77;95.35
46129;BME280;31860;45.186;5.790;2023-03-14T02:12:12;98338.50;;;16.76;97.95
46129;BME280;31860;45.186;5.790;2023-03-14T02:14:39;98312.13;;;16.76;99.21
46129;BME280;31860;45.186;5.790;2023-03-14T02:17:07;98298.22;;;16.72;100.00
46129;BME280;31860;45.186;5.790;2023-03-14T02:22:20;98311.63;;;16.66;100.00
46129;BME280;31860;45.186;5.790;2023-03-14T02:28:00;98300.44;;;16.60;100.00
46129;BME280;31860;45.186;5.790;2023-03-14T02:30:28;98298.00;;;16.55;100.00
46129;BME280;31860;45.186;5.790;2023-03-14T02:33:08;98291.94;;;16.53;100.00
46129;BME280;31860;45.186;5.790;2023-03-14T02:35:56;98276.28;;;16.49;100.00
46129;BME280;31860;45.186;5.790;2023-03-14T02:41:01;98258.88;;;16.43;100.00
46129;BME280;31860;45.186;5.790;2023-03-14T02:43:26;98259.81;;;16.42;100.00
46129;BME280;31860;45.186;5.790;2023-03-14T02:45:52;98249.28;;;16.42;100.00
46129;BME280;31860;45.186;5.790;2023-03-14T02:50:48;98252.69;;;16.44;100.00
46129;BME280;31860;45.186;5.790;2023-03-14T02:53:18;98243.00;;;16.45;100.00
46129;BME280;31860;45.186;5.790;2023-03-14T02:55:46;98234.28;;;16.43;100.00
46129;BME280;31860;45.186;5.790;2023-03-14T02:58:12;98230.69;;;16.45;100.00
46129;BME280;31860;45.186;5.790;2023-03-14T03:00:37;98229.88;;;16.43;100.00
46129;BME280;31860;45.186;5.790;2023-03-14T03:03:03;98229.09;;;16.41;100.00
46129;BME280;31860;45.186;5.790;2023-03-14T03:05:31;98230.06;;;16.39;100.00
46129;BME280;31860;45.186;5.790;2023-03-14T03:07:56;98229.22;;;16.38;100.00
46129;BME280;31860;45.186;5.790;2023-03-14T03:10:22;98233.69;;;16.36;100.00
46129;BME280;31860;45.186;5.790;2023-03-14T03:12:47;98233.69;;;16.36;100.00
46129;BME280;31860;45.186;5.790;2023-03-14T03:15:13;98230.34;;;16.31;100.00
46129;BME280;31860;45.186;5.790;2023-03-14T03:17:38;98223.50;;;16.27;100.00
46129;BME280;31860;45.186;5.790;2023-03-14T03:20:04;98212.19;;;16.24;100.00
46129;BME280;31860;45.186;5.790;2023-03-14T03:22:30;98199.16;;;16.21;100.00
46129;BME280;31860;45.186;5.790;2023-03-14T03:24:56;98201.72;;;16.22;100.00
46129;BME280;31860;45.186;5.790;2023-03-14T03:27:21;98202.66;;;16.21;100.00
46129;BME280;31860;45.186;5.790;2023-03-14T03:29:47;98207.69;;;16.27;100.00
46129;BME280;31860;45.186;5.790;2023-03-14T03:32:12;98219.00;;;16.29;100.00
46129;BME280;31860;45.186;5.790;2023-03-14T03:34:38;98213.88;;;16.26;100.00
46129;BME280;31860;45.186;5.790;2023-03-14T03:37:03;98206.13;;;16.22;100.00
46129;BME280;31860;45.186;5.790;2023-03-14T03:39:29;98205.28;;;16.21;100.00
46129;BME280;31860;45.186;5.790;2023-03-14T03:41:54;98201.78;;;16.21;100.00
46129;BME280;31860;45.186;5.790;2023-03-14T03:44:20;98181.63;;;16.20;100.00
46129;BME280;31860;45.186;5.790;2023-03-14T03:46:45;98188.75;;;16.18;100.00
46129;BME280;31860;45.186;5.790;2023-03-14T03:49:11;98181.81;;;16.15;100.00
46129;BME280;31860;45.186;5.790;2023-03-14T03:51:36;98180.94;;;16.14;100.00
46129;BME280;31860;45.186;5.790;2023-03-14T03:54:01;98185.34;;;16.14;100.00
46129;BME280;31860;45.186;5.790;2023-03-14T03:56:27;98184.31;;;16.18;100.00
46129;BME280;31860;45.186;5.790;2023-03-14T03:58:53;98179.00;;;16.20;100.00
46129;BME280;31860;45.186;5.790;2023-03-14T04:01:18;98177.28;;;16.19;100.00
46129;BME280;31860;45.186;5.790;2023-03-14T04:03:43;98170.34;;;16.16;100.00
46129;BME280;31860;45.186;5.790;2023-03-14T04:06:11;98175.72;;;16.13;100.00
46129;BME280;31860;45.186;5.790;2023-03-14T04:08:37;98172.44;;;16.08;100.00
46129;BME280;31860;45.186;5.790;2023-03-14T04:11:03;98170.81;;;16.04;100.00
46129;BME280;31860;45.186;5.790;2023-03-14T04:13:29;98162.22;;;15.99;100.00
46129;BME280;31860;45.186;5.790;2023-03-14T04:15:55;98152.69;;;15.96;100.00
46129;BME280;31860;45.186;5.790;2023-03-14T04:18:21;98157.88;;;15.98;100.00
46129;BME280;31860;45.186;5.790;2023-03-14T04:20:54;98151.50;;;16.03;100.00
46129;BME280;31860;45.186;5.790;2023-03-14T04:23:20;98156.84;;;16.02;100.00
46129;BME280;31860;45.186;5.790;2023-03-14T04:25:46;98143.63;;;16.03;100.00
46129;BME280;31860;45.186;5.790;2023-03-14T04:28:11;98127.31;;;15.94;100.00
46129;BME280;31860;45.186;5.790;2023-03-14T04:30:36;98121.16;;;15.93;99.81
46129;BME280;31860;45.186;5.790;2023-03-14T04:33:02;98123.88;;;15.92;97.97
46129;BME280;31860;45.186;5.790;2023-03-14T04:35:30;98113.16;;;15.96;96.57
46129;BME280;31860;45.186;5.790;2023-03-14T04:37:55;98113.03;;;15.99;96.33
46129;BME280;31860;45.186;5.790;2023-03-14T04:40:21;98112.06;;;16.02;97.91
46129;BME280;31860;45.186;5.790;2023-03-14T04:42:46;98098.66;;;16.08;98.59
46129;BME280;31860;45.186;5.790;2023-03-14T04:45:12;98102.94;;;16.10;99.18
46129;BME280;31860;45.186;5.790;2023-03-14T04:47:37;98097.72;;;16.09;100.00
46129;BME280;31860;45.186;5.790;2023-03-14T04:50:03;98098.53;;;16.11;100.00
46129;BME280;31860;45.186;5.790;2023-03-14T04:52:28;98095.03;;;16.10;100.00
46129;BME280;31860;45.186;5.790;2023-03-14T04:54:54;98085.22;;;16.14;100.00
46129;BME280;31860;45.186;5.790;2023-03-14T04:57:19;98076.56;;;16.12;100.00
46129;BME280;31860;45.186;5.790;2023-03-14T04:59:45;98074.88;;;16.09;100.00
46129;BME280;31860;45.186;5.790;2023-03-14T05:02:10;98072.25;;;16.09;100.00
46129;BME280;31860;45.186;5.790;2023-03-14T05:04:36;98061.78;;;16.08;100.00
46129;BME280;31860;45.186;5.790;2023-03-14T05:07:01;98070.53;;;16.08;100.00
46129;BME280;31860;45.186;5.790;2023-03-14T05:09:27;98068.66;;;16.12;100.00
46129;BME280;31860;45.186;5.790;2023-03-14T05:11:53;98071.31;;;16.10;100.00
46129;BME280;31860;45.186;5.790;2023-03-14T05:14:18;98058.16;;;16.10;100.00
46129;BME280;31860;45.186;5.790;2023-03-14T05:16:44;98067.88;;;16.08;100.00
46129;BME280;31860;45.186;5.790;2023-03-14T05:19:10;98068.88;;;16.06;100.00
46129;BME280;31860;45.186;5.790;2023-03-14T05:21:36;98069.84;;;16.03;100.00
46129;BME280;31860;45.186;5.790;2023-03-14T05:24:02;98064.59;;;16.03;100.00
46129;BME280;31860;45.186;5.790;2023-03-14T05:26:28;98069.78;;;16.05;100.00
46129;BME280;31860;45.186;5.790;2023-03-14T05:28:53;98063.69;;;16.04;100.00
46129;BME280;31860;45.186;5.790;2023-03-14T05:31:19;98071.69;;;16.01;100.00
46129;BME280;31860;45.186;5.790;2023-03-14T05:33:44;98078.88;;;15.98;100.00
46129;BME280;31860;45.186;5.790;2023-03-14T05:36:10;98078.06;;;15.96;100.00
46129;BME280;31860;45.186;5.790;2023-03-14T05:38:35;98076.16;;;15.99;100.00
46129;BME280;31860;45.186;5.790;2023-03-14T05:41:01;98077.03;;;16.00;100.00
46129;BME280;31860;45.186;5.790;2023-03-14T05:43:26;98078.78;;;15.99;100.00
46129;BME280;31860;45.186;5.790;2023-03-14T05:45:52;98081.50;;;15.98;100.00
46129;BME280;31860;45.186;5.790;2023-03-14T05:48:17;98079.00;;;15.95;100.00
46129;BME280;31860;45.186;5.790;2023-03-14T05:50:43;98080.75;;;15.94;100.00
46129;BME280;31860;45.186;5.790;2023-03-14T05:53:09;98085.16;;;15.94;100.00
46129;BME280;31860;45.186;5.790;2023-03-14T05:55:34;98096.50;;;15.96;100.00
46129;BME280;31860;45.186;5.790;2023-03-14T05:58:00;98092.16;;;15.95;100.00
46129;BME280;31860;45.186;5.790;2023-03-14T06:00:26;98085.16;;;15.94;100.00
46129;BME280;31860;45.186;5.790;2023-03-14T06:02:51;98088.53;;;15.97;100.00
46129;BME280;31860;45.186;5.790;2023-03-14T06:05:17;98085.06;;;15.97;100.00
46129;BME280;31860;45.186;5.790;2023-03-14T06:07:43;98087.63;;;15.98;100.00
46129;BME280;31860;45.186;5.790;2023-03-14T06:10:09;98087.56;;;16.00;100.00
46129;BME280;31860;45.186;5.790;2023-03-14T06:12:34;98092.91;;;15.98;100.00
46129;BME280;31860;45.186;5.790;2023-03-14T06:15:00;98100.66;;;16.01;100.00
46129;BME280;31860;45.186;5.790;2023-03-14T06:17:25;98100.59;;;16.03;100.00
46129;BME280;31860;45.186;5.790;2023-03-14T06:19:51;98098.03;;;16.01;100.00
46129;BME280;31860;45.186;5.790;2023-03-14T06:22:17;98095.34;;;16.03;100.00
46129;BME280;31860;45.186;5.790;2023-03-14T06:24:42;98106.81;;;16.02;100.00
46129;BME280;31860;45.186;5.790;2023-03-14T06:27:08;98106.75;;;16.03;100.00
46129;BME280;31860;45.186;5.790;2023-03-14T06:29:33;98105.84;;;16.04;100.00
46129;BME280;31860;45.186;5.790;2023-03-14T06:31:59;98112.06;;;16.02;100.00
46129;BME280;31860;45.186;5.790;2023-03-14T06:34:25;98104.09;;;16.03;100.00
46129;BME280;31860;45.186;5.790;2023-03-14T06:36:53;98111.13;;;16.03;100.00
46129;BME280;31860;45.186;5.790;2023-03-14T06:39:19;98100.00;;;15.96;100.00
46129;BME280;31860;45.186;5.790;2023-03-14T06:41:45;98109.75;;;15.94;100.00
46129;BME280;31860;45.186;5.790;2023-03-14T06:44:10;98120.34;;;15.93;100.00
46129;BME280;31860;45.186;5.790;2023-03-14T06:46:36;98117.63;;;15.94;100.00
46129;BME280;31860;45.186;5.790;2023-03-14T06:49:02;98117.63;;;15.94;100.00
46129;BME280;31860;45.186;5.790;2023-03-14T06:51:28;98130.59;;;15.99;100.00
46129;BME280;31860;45.186;5.790;2023-03-14T06:53:53;98123.63;;;15.98;100.00
46129;BME280;31860;45.186;5.790;2023-03-14T06:56:19;98124.44;;;16.00;100.00
46129;BME280;31860;45.186;5.790;2023-03-14T06:58:44;98121.75;;;16.01;100.00
46129;BME280;31860;45.186;5.790;2023-03-14T07:01:27;98129.63;;;16.01;100.00
46129;BME280;31860;45.186;5.790;2023-03-14T07:03:53;98125.34;;;15.99;100.00
46129;BME280;31860;45.186;5.790;2023-03-14T07:06:19;98130.59;;;15.99;100.00
46129;BME280;31860;45.186;5.790;2023-03-14T07:08:45;98135.94;;;15.97;100.00
46129;BME280;31860;45.186;5.790;2023-03-14T07:11:10;98136.00;;;15.96;100.00
46129;BME280;31860;45.186;5.790;2023-03-14T07:13:37;98146.53;;;15.96;100.00
46129;BME280;31860;45.186;5.790;2023-03-14T07:16:03;98152.69;;;15.96;100.00
46129;BME280;31860;45.186;5.790;2023-03-14T07:18:29;98147.19;;;16.02;100.00
46129;BME280;31860;45.186;5.790;2023-03-14T07:20:55;98151.69;;;15.99;100.00
46129;BME280;31860;45.186;5.790;2023-03-14T07:23:20;98143.75;;;16.00;100.00
46129;BME280;31860;45.186;5.790;2023-03-14T07:25:49;98145.56;;;15.98;100.00
46129;BME280;31860;45.186;5.790;2023-03-14T07:28:16;98150.72;;;16.01;100.00
46129;BME280;31860;45.186;5.790;2023-03-14T07:30:42;98169.88;;;16.05;100.00
46129;BME280;31860;45.186;5.790;2023-03-14T07:33:07;98166.34;;;16.06;100.00
46129;BME280;31860;45.186;5.790;2023-03-14T07:35:33;98172.38;;;16.09;100.00
46129;BME280;31860;45.186;5.790;2023-03-14T07:37:58;98167.97;;;16.10;100.00
46129;BME280;31860;45.186;5.790;2023-03-14T07:40:24;98176.69;;;16.10;100.00
46129;BME280;31860;45.186;5.790;2023-03-14T07:42:50;98194.25;;;16.11;100.00
46129;BME280;31860;45.186;5.790;2023-03-14T07:45:16;98189.84;;;16.12;100.00
46129;BME280;31860;45.186;5.790;2023-03-14T07:47:41;98184.56;;;16.12;100.00
46129;BME280;31860;45.186;5.790;2023-03-14T07:50:08;98197.75;;;16.12;100.00
46129;BME280;31860;45.186;5.790;2023-03-14T07:52:34;98198.56;;;16.12;100.00
46129;BME280;31860;45.186;5.790;2023-03-14T07:54:59;98203.84;;;16.12;100.00
46129;BME280;31860;45.186;5.790;2023-03-14T07:57:25;98203.84;;;16.12;100.00
46129;BME280;31860;45.186;5.790;2023-03-14T07:59:50;98213.56;;;16.12;100.00
46129;BME280;31860;45.186;5.790;2023-03-14T08:02:16;98223.22;;;16.11;100.00
46129;BME280;31860;45.186;5.790;2023-03-14T08:04:43;98217.81;;;16.14;100.00
46129;BME280;31860;45.186;5.790;2023-03-14T08:07:08;98226.81;;;16.09;100.00
46129;BME280;31860;45.186;5.790;2023-03-14T08:09:34;98224.25;;;16.07;100.00
46129;BME280;31860;45.186;5.790;2023-03-14T08:11:59;98231.28;;;16.07;100.00
46129;BME280;31860;45.186;5.790;2023-03-14T08:14:25;98233.06;;;16.06;100.00
46129;BME280;31860;45.186;5.790;2023-03-14T08:16:51;98234.84;;;16.06;100.00
46129;BME280;31860;45.186;5.790;2023-03-14T08:19:17;98234.03;;;16.04;100.00
46129;BME280;31860;45.186;5.790;2023-03-14T08:21:42;98248.84;;;16.06;100.00
46129;BME280;31860;45.186;5.790;2023-03-14T08:24:08;98249.72;;;16.07;100.00
46129;BME280;31860;45.186;5.790;2023-03-14T08:26:33;98250.53;;;16.09;100.00
46129;BME280;31860;45.186;5.790;2023-03-14T08:28:59;98273.44;;;16.07;100.00
46129;BME280;31860;45.186;5.790;2023-03-14T08:31:25;98266.47;;;16.06;100.00
46129;BME280;31860;45.186;5.790;2023-03-14T08:33:50;98270.78;;;16.07;100.00
46129;BME280;31860;45.186;5.790;2023-03-14T08:36:17;98271.66;;;16.07;100.00
46129;BME280;31860;45.186;5.790;2023-03-14T08:38:43;98280.59;;;16.03;100.00
46129;BME280;31860;45.186;5.790;2023-03-14T08:41:09;98294.63;;;16.04;100.00
46129;BME280;31860;45.186;5.790;2023-03-14T08:43:35;98291.28;;;15.99;100.00
46129;BME280;31860;45.186;5.790;2023-03-14T08:46:01;98293.97;;;15.97;100.00
46129;BME280;31860;45.186;5.790;2023-03-14T08:48:27;98294.16;;;15.93;100.00
46129;BME280;31860;45.186;5.790;2023-03-14T08:50:54;98300.25;;;15.95;100.00
46129;BME280;31860;45.186;5.790;2023-03-14T08:53:20;98303.72;;;15.95;100.00
46129;BME280;31860;45.186;5.790;2023-03-14T08:55:47;98305.59;;;15.92;100.00
46129;BME280;31860;45.186;5.790;2023-03-14T08:58:16;98311.00;;;15.89;100.00
46129;BME280;31860;45.186;5.790;2023-03-14T09:00:41;98314.56;;;15.86;100.00
46129;BME280;31860;45.186;5.790;2023-03-14T09:03:07;98324.16;;;15.89;100.00
46129;BME280;31860;45.186;5.790;2023-03-14T09:05:33;98323.28;;;15.88;100.00
46129;BME280;31860;45.186;5.790;2023-03-14T09:07:59;98333.97;;;15.84;100.00
46129;BME280;31860;45.186;5.790;2023-03-14T09:10:24;98334.91;;;15.83;100.00
46129;BME280;31860;45.186;5.790;2023-03-14T09:12:50;98338.53;;;15.79;100.00
46129;BME280;31860;45.186;5.790;2023-03-14T09:15:16;98347.38;;;15.78;100.00
46129;BME280;31860;45.186;5.790;2023-03-14T09:17:43;98356.97;;;15.79;100.00
46129;BME280;31860;45.186;5.790;2023-03-14T09:20:09;98358.72;;;15.80;100.00
46129;BME280;31860;45.186;5.790;2023-03-14T09:22:35;98363.97;;;15.80;100.00
46129;BME280;31860;45.186;5.790;2023-03-14T09:25:02;98366.63;;;15.80;100.00
46129;BME280;31860;45.186;5.790;2023-03-14T09:27:48;98378.78;;;15.82;100.00
46129;BME280;31860;45.186;5.790;2023-03-14T09:30:13;98386.69;;;15.82;100.00
46129;BME280;31860;45.186;5.790;2023-03-14T09:32:39;98400.72;;;15.83;100.00
46129;BME280;31860;45.186;5.790;2023-03-14T09:35:05;98413.97;;;15.81;100.00
46129;BME280;31860;45.186;5.790;2023-03-14T09:37:30;98415.59;;;15.84;100.00
46129;BME280;31860;45.186;5.790;2023-03-14T09:39:55;98432.44;;;15.80;100.00
46129;BME280;31860;45.186;5.790;2023-03-14T09:42:23;98444.63;;;15.82;100.00
46129;BME280;31860;45.186;5.790;2023-03-14T09:44:57;98445.50;;;15.83;100.00
46129;BME280;31860;45.186;5.790;2023-03-14T09:47:24;98448.25;;;15.80;100.00
46129;BME280;31860;45.186;5.790;2023-03-14T09:49:50;98453.47;;;15.81;100.00
46129;BME280;31860;45.186;5.790;2023-03-14T09:52:24;98455.09;;;15.84;100.00
46129;BME280;31860;45.186;5.790;2023-03-14T09:57:20;98470.16;;;15.80;100.00
46129;BME280;31860;45.186;5.790;2023-03-14T09:59:48;98481.63;;;15.79;100.00
46129;BME280;31860;45.186;5.790;2023-03-14T10:02:16;98493.91;;;15.79;100.00
46129;BME280;31860;45.186;5.790;2023-03-14T10:04:44;98494.84;;;15.76;100.00
46129;BME280;31860;45.186;5.790;2023-03-14T10:07:15;98510.66;;;15.76;100.00
46129;BME280;31860;45.186;5.790;2023-03-14T10:09:44;98516.78;;;15.77;100.00
46129;BME280;31860;45.186;5.790;2023-03-14T10:12:11;98517.78;;;15.74;100.00
46129;BME280;31860;45.186;5.790;2023-03-14T10:14:45;98523.94;;;15.73;100.00
46129;BME280;31860;45.186;5.790;2023-03-14T10:17:13;98532.84;;;15.69;100.00
46129;BME280;31860;45.186;5.790;2023-03-14T10:19:54;98540.91;;;15.63;100.00
46129;BME280;31860;45.186;5.790;2023-03-14T10:22:21;98541.78;;;15.64;100.00
46129;BME280;31860;45.186;5.790;2023-03-14T10:24:55;98547.94;;;15.64;100.00
46129;BME280;31860;45.186;5.790;2023-03-14T10:27:31;98549.84;;;15.59;100.00
46129;BME280;31860;45.186;5.790;2023-03-14T10:30:03;98558.69;;;15.57;100.00
46129;BME280;31860;45.186;5.790;2023-03-14T10:32:34;98571.91;;;15.55;100.00
46129;BME280;31860;45.186;5.790;2023-03-14T10:35:18;98578.94;;;15.55;100.00
46129;BME280;31860;45.186;5.790;2023-03-14T10:37:57;98584.38;;;15.49;100.00
46129;BME280;31860;45.186;5.790;2023-03-14T10:40:30;98592.50;;;15.41;100.00
46129;BME280;31860;45.186;5.790;2023-03-14T10:42:58;98605.78;;;15.35;100.00
46129;BME280;31860;45.186;5.790;2023-03-14T10:45:38;98607.66;;;15.32;100.00
46129;BME280;31860;45.186;5.790;2023-03-14T10:53:40;98625.19;;;15.31;100.00
46129;BME280;31860;45.186;5.790;2023-03-14T10:56:07;98634.91;;;15.29;100.00
46129;BME280;31860;45.186;5.790;2023-03-14T10:58:41;98642.88;;;15.26;100.00
46129;BME280;31860;45.186;5.790;2023-03-14T11:04:10;98639.53;;;15.21;100.00
46129;BME280;31860;45.186;5.790;2023-03-14T11:09:29;98661.63;;;15.14;100.00
46129;BME280;31860;45.186;5.790;2023-03-14T11:12:10;98643.22;;;15.14;100.00
46129;BME280;31860;45.186;5.790;2023-03-14T11:14:47;98645.00;;;15.13;100.00
46129;BME280;31860;45.186;5.790;2023-03-14T11:17:30;98649.28;;;15.17;98.45
46129;BME280;31860;45.186;5.790;2023-03-14T11:20:32;98658.78;;;15.21;97.63
46129;BME280;31860;45.186;5.790;2023-03-14T11:23:18;98668.22;;;15.30;99.66
46129;BME280;31860;45.186;5.790;2023-03-14T11:28:41;98659.25;;;15.37;91.94
46129;BME280;31860;45.186;5.790;2023-03-14T11:31:20;98662.66;;;15.41;92.38
46129;BME280;31860;45.186;5.790;2023-03-14T11:36:32;98668.34;;;15.58;94.71
46129;BME280;31860;45.186;5.790;2023-03-14T11:38:59;98656.88;;;15.60;95.10
46129;BME280;31860;45.186;5.790;2023-03-14T11:41:30;98655.81;;;15.66;92.20
46129;BME280;31860;45.186;5.790;2023-03-14T11:43:58;98663.53;;;15.72;83.46
46129;BME280;31860;45.186;5.790;2023-03-14T11:46:46;98659.88;;;15.77;79.80
46129;BME280;31860;45.186;5.790;2023-03-14T11:49:36;98648.38;;;15.80;74.29
46129;BME280;31860;45.186;5.790;2023-03-14T11:55:06;98639.06;;;15.97;72.21
46129;BME280;31860;45.186;5.790;2023-03-14T11:57:32;98652.81;;;16.07;71.60
46129;BME280;31860;45.186;5.790;2023-03-14T12:00:03;98653.56;;;16.10;68.85
46129;BME280;31860;45.186;5.790;2023-03-14T12:02:47;98649.00;;;16.17;65.30
46129;BME280;31860;45.186;5.790;2023-03-14T12:05:31;98653.22;;;16.23;63.80
46129;BME280;31860;45.186;5.790;2023-03-14T12:13:13;98644.13;;;16.31;62.90
46129;BME280;31860;45.186;5.790;2023-03-14T12:15:43;98640.34;;;16.40;63.10
46129;BME280;31860;45.186;5.790;2023-03-14T12:18:28;98646.34;;;16.45;62.14
46129;BME280;31860;45.186;5.790;2023-03-14T12:20:57;98642.66;;;16.50;64.02
46129;BME280;31860;45.186;5.790;2023-03-14T12:23:24;98648.00;;;16.49;62.52
46129;BME280;31860;45.186;5.790;2023-03-14T12:26:27;98657.53;;;16.53;60.42
46129;BME280;31860;45.186;5.790;2023-03-14T12:42:04;98677.25;;;16.40;68.48
46129;BME280;31860;45.186;5.790;2023-03-14T12:47:40;98662.41;;;16.37;70.21
46129;BME280;31860;45.186;5.790;2023-03-14T12:50:14;98665.97;;;16.36;68.05
46129;BME280;31860;45.186;5.790;2023-03-14T12:52:47;98657.03;;;16.40;66.62
46129;BME280;31860;45.186;5.790;2023-03-14T12:55:18;98648.88;;;16.49;65.32
46129;BME280;31860;45.186;5.790;2023-03-14T12:58:54;98651.19;;;16.58;61.55
46129;BME280;31860;45.186;5.790;2023-03-14T13:01:00;98653.44;;;16.70;62.50
46129;BME280;31860;45.186;5.790;2023-03-14T13:03:37;98646.84;;;16.83;60.90
46129;BME280;31860;45.186;5.790;2023-03-14T13:06:04;98647.34;;;16.94;61.86
46129;BME280;31860;45.186;5.790;2023-03-14T13:08:38;98640.72;;;17.08;60.40
46129;BME280;31860;45.186;5.790;2023-03-14T13:11:05;98638.69;;;17.16;56.40
46129;BME280;31860;45.186;5.790;2023-03-14T13:13:34;98631.31;;;17.24;58.38
46129;BME280;31860;45.186;5.790;2023-03-14T13:16:01;98616.13;;;17.30;57.41
46129;BME280;31860;45.186;5.790;2023-03-14T13:18:36;98607.94;;;17.38;56.92
46129;BME280;31860;45.186;5.790;2023-03-14T13:21:10;98599.81;;;17.42;56.67
46129;BME280;31860;45.186;5.790;2023-03-14T13:23:37;98596.22;;;17.45;56.39
46129;BME280;31860;45.186;5.790;2023-03-14T13:26:05;98597.88;;;17.49;57.00
46129;BME280;31860;45.186;5.790;2023-03-14T13:28:34;98597.88;;;17.49;57.67
46129;BME280;31860;45.186;5.790;2023-03-14T13:31:02;98597.88;;;17.49;57.50
46129;BME280;31860;45.186;5.790;2023-03-14T13:33:28;98604.03;;;17.49;58.20
46129;BME280;31860;45.186;5.790;2023-03-14T13:36:02;98609.38;;;17.48;58.75
46129;BME280;31860;45.186;5.790;2023-03-14T13:38:30;98625.22;;;17.46;59.96
46129;BME280;31860;45.186;5.790;2023-03-14T13:40:58;98633.19;;;17.45;59.13
46129;BME280;31860;45.186;5.790;2023-03-14T13:43:32;98641.25;;;17.42;57.36
46129;BME280;31860;45.186;5.790;2023-03-14T13:46:10;98645.78;;;17.38;57.25
46129;BME280;31860;45.186;5.790;2023-03-14T13:48:44;98651.16;;;17.35;58.65
46129;BME280;31860;45.186;5.790;2023-03-14T13:51:13;98661.91;;;17.29;59.34
46129;BME280;31860;45.186;5.790;2023-03-14T13:53:57;98662.97;;;17.25;59.05
46129;BME280;31860;45.186;5.790;2023-03-14T13:56:25;98662.31;;;17.19;57.37